Archival Weather

Gondia Arpt/Birsi

Gondia Arpt/Birsi, India (VAGD)

Report from: Thursday, April 25, 2024 3:30 AM UTC
Current time: Saturday, June 22, 2024 9:31 AM UTC

Current weather – Weather history – Daily summaries
Weather forecast

Present weatherHaze
Temperature32.0°C (89.6°F)
Heat index39.2°C (102.6°F)
Dew point25.0°C (77.0°F)
Winds 2 kts (1 m/s, 2.3 mph) South (180°)
Visibility3.1 mi. (5 km)
Altimeter29.83 in.Hg (1010 mB)
Relative humidity67 %
Density altitude2,472 ft. (753 m)
Remarks No significant changes expected in the next two hours
Flight conditions Marginal Visual Meteorological Conditions
Raw dataVAGD 250330Z 18002KT 5000 HZ NSC 32/25 Q1010 NOSIG
An error has occurred. This application may no longer respond until reloaded. Reload 🗙